Terminal Aerodrome Forecast
Issued by NWS Jackson, MS

Home | Current Version | Previous Version | Text Only | Print | Product List | Glossary On
Versions: 1 2 3 4 5 6 7 8 9 10 11 12 13
157
FTUS44 KJAN 261720
TAFMEI
TAF
KMEI 261720Z 2618/2718 18015G21KT P6SM SCT035
     FM270300 17020G28KT P6SM OVC025
     FM270500 20022G30KT 4SM TSRA BR OVC025CB
     FM271000 29009KT P6SM OVC007
     FM271500 26006KT P6SM OVC015=

USA.gov is the U.S. government's official web portal to all federal, state and local government web resources and services.